createdAt,value
2022-10-25T00:00:58.544Z,14.01
2022-10-25T00:03:25.218Z,13.98
2022-10-25T00:05:51.756Z,14.10
2022-10-25T00:08:18.412Z,13.95
2022-10-25T00:10:45.227Z,14.00
2022-10-25T00:13:11.988Z,13.86
2022-10-25T00:15:38.931Z,13.94
2022-10-25T00:18:05.824Z,13.86
2022-10-25T00:20:32.379Z,13.97
2022-10-25T00:22:59.257Z,13.86
2022-10-25T00:25:25.791Z,13.91
2022-10-25T00:27:52.306Z,13.84
2022-10-25T00:30:19.689Z,13.84
2022-10-25T00:32:46.463Z,13.90
2022-10-25T00:35:13.351Z,13.90
2022-10-25T00:37:39.961Z,13.84
2022-10-25T00:40:07.272Z,13.80
2022-10-25T00:42:33.834Z,13.82
2022-10-25T00:45:19.649Z,13.87
2022-10-25T00:47:58.019Z,13.86
2022-10-25T00:50:35.632Z,13.75
2022-10-25T00:53:08.320Z,13.85
2022-10-25T00:55:36.679Z,13.81
2022-10-25T00:58:14.293Z,13.71
2022-10-25T01:00:40.949Z,13.69
2022-10-25T01:03:07.852Z,13.68
2022-10-25T01:05:35.618Z,13.65
2022-10-25T01:08:02.354Z,13.69
2022-10-25T01:10:29.578Z,13.64
2022-10-25T01:12:56.392Z,13.79
2022-10-25T01:15:29.167Z,13.70
2022-10-25T01:18:16.913Z,13.65
2022-10-25T01:21:07.585Z,13.53
2022-10-25T01:23:48.537Z,13.64
2022-10-25T01:26:18.041Z,13.55
2022-10-25T01:28:57.121Z,13.56
2022-10-25T01:31:32.531Z,13.62
2022-10-25T01:34:13.617Z,13.67
2022-10-25T01:36:53.259Z,13.77
2022-10-25T01:39:31.155Z,13.77
2022-10-25T01:42:07.850Z,13.68
2022-10-25T01:44:40.615Z,13.66
2022-10-25T01:47:16.229Z,13.72
2022-10-25T01:49:53.154Z,13.80
2022-10-25T01:52:24.049Z,13.73
2022-10-25T01:54:51.520Z,13.67
2022-10-25T01:57:36.880Z,13.69
2022-10-25T02:00:17.937Z,13.62
2022-10-25T02:03:21.786Z,13.70
2022-10-25T02:06:13.392Z,13.71
2022-10-25T02:08:53.660Z,13.54
2022-10-25T02:11:28.497Z,13.62
2022-10-25T02:14:13.169Z,13.52
2022-10-25T02:16:45.286Z,13.59
2022-10-25T02:19:15.869Z,13.53
2022-10-25T02:21:45.211Z,13.48
2022-10-25T02:24:20.550Z,13.44
2022-10-25T02:29:37.755Z,13.35
2022-10-25T02:32:04.677Z,13.37
2022-10-25T02:34:32.291Z,13.34
2022-10-25T02:36:59.442Z,13.42
2022-10-25T02:39:31.263Z,13.44
2022-10-25T02:41:58.663Z,13.45
2022-10-25T02:44:25.258Z,13.36
2022-10-25T02:46:51.773Z,13.37
2022-10-25T02:49:18.365Z,13.42
2022-10-25T02:51:44.933Z,13.54
2022-10-25T02:54:11.552Z,13.45
2022-10-25T02:56:38.576Z,13.38
2022-10-25T02:59:05.105Z,13.34
2022-10-25T03:01:31.916Z,13.40
2022-10-25T03:03:58.632Z,13.31
2022-10-25T03:06:25.263Z,13.30
2022-10-25T03:08:51.849Z,13.31
2022-10-25T03:11:18.629Z,13.38
2022-10-25T03:13:45.210Z,13.29
2022-10-25T03:16:11.847Z,13.24
2022-10-25T03:18:38.393Z,13.27
2022-10-25T03:21:05.940Z,13.23
2022-10-25T03:23:32.870Z,13.20
2022-10-25T03:26:00.682Z,13.17
2022-10-25T03:28:30.487Z,13.23
2022-10-25T03:30:58.202Z,13.15
2022-10-25T03:33:26.073Z,13.15
2022-10-25T03:35:54.117Z,13.10
2022-10-25T03:38:21.237Z,13.10
2022-10-25T03:40:48.077Z,13.06
2022-10-25T03:43:14.856Z,13.14
2022-10-25T03:45:41.560Z,13.11
2022-10-25T03:48:08.277Z,13.09
2022-10-25T03:50:36.188Z,13.07
2022-10-25T03:53:03.930Z,13.06
2022-10-25T03:55:31.054Z,13.11
2022-10-25T03:57:57.638Z,13.04
2022-10-25T04:00:24.237Z,13.05
2022-10-25T04:02:59.340Z,13.09
2022-10-25T04:05:28.882Z,13.04
2022-10-25T04:07:55.522Z,13.06
2022-10-25T04:10:22.058Z,12.97
2022-10-25T04:12:48.924Z,12.90
2022-10-25T04:15:16.032Z,12.88
2022-10-25T04:17:42.639Z,12.85
2022-10-25T04:20:09.787Z,12.89
2022-10-25T04:25:03.338Z,12.87
2022-10-25T04:27:29.897Z,12.87
2022-10-25T04:29:56.510Z,12.78
2022-10-25T04:32:23.071Z,12.76
2022-10-25T04:34:49.701Z,12.84
2022-10-25T04:37:16.513Z,12.78
2022-10-25T04:39:43.148Z,12.76
2022-10-25T04:44:56.199Z,12.81
2022-10-25T04:47:22.794Z,12.85
2022-10-25T04:49:49.458Z,12.86
2022-10-25T04:52:16.147Z,12.78
2022-10-25T04:54:42.692Z,12.81
2022-10-25T04:57:09.242Z,12.80
2022-10-25T04:59:35.814Z,12.74
2022-10-25T05:02:02.352Z,12.66
2022-10-25T05:04:28.888Z,12.62
2022-10-25T05:06:55.540Z,12.62
2022-10-25T05:09:22.246Z,12.64
2022-10-25T05:11:48.798Z,12.58
2022-10-25T05:14:15.438Z,12.62
2022-10-25T05:16:42.136Z,12.71
2022-10-25T05:19:08.736Z,12.71
2022-10-25T05:21:35.575Z,12.79
2022-10-25T05:24:02.599Z,12.77
2022-10-25T05:26:30.301Z,12.81
2022-10-25T05:28:57.158Z,12.81
2022-10-25T05:31:28.869Z,12.81
2022-10-25T05:34:00.737Z,12.81
2022-10-25T05:36:33.288Z,12.83
2022-10-25T05:39:01.148Z,12.97
2022-10-25T05:41:30.687Z,12.98
2022-10-25T05:44:00.198Z,13.05
2022-10-25T05:46:27.263Z,13.12
2022-10-25T05:48:54.290Z,13.20
2022-10-25T05:51:36.692Z,13.24
2022-10-25T05:54:11.934Z,13.26
2022-10-25T05:56:39.409Z,13.25
2022-10-25T05:59:11.199Z,13.28
2022-10-25T06:01:40.918Z,13.23
2022-10-25T06:04:08.005Z,13.30
2022-10-25T06:06:35.222Z,13.25
2022-10-25T06:09:02.160Z,13.34
2022-10-25T06:11:29.657Z,13.36
2022-10-25T06:13:56.279Z,13.35
2022-10-25T06:16:23.583Z,13.38
2022-10-25T06:18:50.786Z,13.36
2022-10-25T06:21:23.901Z,13.42
2022-10-25T06:23:51.400Z,13.37
2022-10-25T06:26:25.942Z,13.34
2022-10-25T06:28:55.076Z,13.35
2022-10-25T06:31:21.765Z,13.30
2022-10-25T06:33:48.549Z,13.35
2022-10-25T06:36:20.864Z,13.41
2022-10-25T06:38:48.221Z,13.38
2022-10-25T06:41:17.172Z,13.37
2022-10-25T06:43:43.983Z,13.29
2022-10-25T06:46:22.631Z,13.26
2022-10-25T06:48:50.649Z,13.18
2022-10-25T06:51:17.379Z,13.20
2022-10-25T06:53:44.097Z,13.64
2022-10-25T06:56:14.646Z,14.63
2022-10-25T06:58:41.952Z,14.32
2022-10-25T07:01:11.805Z,13.85
2022-10-25T07:03:39.180Z,13.68
2022-10-25T07:06:13.940Z,14.16
2022-10-25T07:08:46.028Z,15.34
2022-10-25T07:11:19.945Z,15.86
2022-10-25T07:13:47.182Z,17.05
2022-10-25T07:16:16.898Z,16.68
2022-10-25T07:18:43.917Z,16.92
2022-10-25T07:21:13.586Z,17.52
2022-10-25T07:23:42.618Z,16.89
2022-10-25T07:26:11.405Z,17.37
2022-10-25T07:28:38.285Z,17.53
2022-10-25T07:31:05.277Z,16.87
2022-10-25T07:33:32.111Z,17.22
2022-10-25T07:36:09.681Z,17.54
2022-10-25T07:38:37.421Z,17.24
2022-10-25T07:41:04.194Z,17.82
2022-10-25T07:43:31.077Z,16.93
2022-10-25T07:45:57.632Z,17.33
2022-10-25T07:48:24.450Z,17.93
2022-10-25T07:50:51.468Z,18.04
2022-10-25T07:53:18.493Z,18.62
2022-10-25T07:55:57.334Z,17.74
2022-10-25T07:58:24.074Z,18.37
2022-10-25T08:00:50.690Z,18.60
2022-10-25T08:03:18.667Z,18.08
2022-10-25T08:05:47.406Z,18.26
2022-10-25T08:08:14.863Z,17.97
2022-10-25T08:10:43.157Z,17.69
2022-10-25T08:13:10.044Z,18.26
2022-10-25T08:15:36.792Z,17.35
2022-10-25T08:18:04.557Z,17.40
2022-10-25T08:20:56.873Z,17.05
2022-10-25T08:23:18.487Z,17.11
2022-10-25T08:25:45.119Z,16.86
2022-10-25T08:28:11.860Z,16.98
2022-10-25T08:30:42.068Z,16.64
2022-10-25T08:33:11.639Z,16.33
2022-10-25T08:35:38.999Z,16.70
2022-10-25T08:38:06.093Z,16.33
2022-10-25T08:40:54.269Z,16.24
2022-10-25T08:43:46.189Z,16.38
2022-10-25T08:46:27.621Z,16.42
2022-10-25T08:49:17.713Z,16.56
2022-10-25T08:51:47.536Z,16.25
2022-10-25T08:54:20.027Z,16.33
2022-10-25T08:57:03.437Z,16.47
2022-10-25T08:59:39.364Z,16.55
2022-10-25T09:02:16.006Z,16.77
2022-10-25T09:04:42.838Z,16.70
2022-10-25T09:07:27.930Z,17.09
2022-10-25T09:10:21.656Z,16.91
2022-10-25T09:13:10.545Z,17.42
2022-10-25T09:15:54.414Z,18.13
2022-10-25T09:18:27.031Z,17.49
2022-10-25T09:20:54.270Z,17.49
2022-10-25T09:23:30.246Z,18.18
2022-10-25T09:26:04.029Z,18.63
2022-10-25T09:28:51.276Z,18.02
2022-10-25T09:31:25.344Z,18.44
2022-10-25T09:34:01.656Z,18.75
2022-10-25T09:36:37.959Z,18.22
2022-10-25T09:39:15.830Z,18.56
2022-10-25T09:41:46.926Z,17.98
2022-10-25T09:44:22.769Z,17.96
2022-10-25T09:47:03.023Z,18.39
2022-10-25T09:49:33.565Z,18.54
2022-10-25T09:52:22.768Z,19.03
2022-10-25T09:55:06.939Z,18.67
2022-10-25T09:57:33.530Z,17.95
2022-10-25T10:00:00.123Z,17.29
2022-10-25T10:02:27.677Z,17.30
2022-10-25T10:04:54.482Z,16.72
2022-10-25T10:07:26.810Z,16.66
2022-10-25T10:09:57.053Z,16.85
2022-10-25T10:12:42.577Z,16.81
2022-10-25T10:15:21.057Z,16.88
2022-10-25T10:17:47.957Z,16.74
2022-10-25T10:20:18.530Z,16.80
2022-10-25T10:25:36.538Z,16.76
2022-10-25T10:28:03.137Z,16.88
2022-10-25T10:30:31.035Z,17.03
2022-10-25T10:33:00.813Z,17.24
2022-10-25T10:35:29.256Z,17.11
2022-10-25T10:38:28.874Z,17.26
2022-10-25T10:41:23.581Z,17.19
2022-10-25T10:43:51.093Z,17.32
2022-10-25T10:46:24.840Z,17.66
2022-10-25T10:48:57.645Z,17.36
2022-10-25T10:51:43.905Z,17.36
2022-10-25T10:54:25.157Z,17.19
2022-10-25T10:57:06.646Z,17.79
2022-10-25T10:59:45.571Z,17.81
2022-10-25T11:02:41.880Z,18.01
2022-10-25T11:05:25.027Z,17.83
2022-10-25T11:07:58.577Z,17.83
2022-10-25T11:10:30.930Z,17.33
2022-10-25T11:13:18.337Z,17.47
2022-10-25T11:16:00.373Z,17.12
2022-10-25T11:19:05.470Z,17.15
2022-10-25T11:21:56.630Z,17.71
2022-10-25T11:25:04.780Z,17.88
2022-10-25T11:27:56.523Z,17.39
2022-10-25T11:30:24.661Z,17.50
2022-10-25T11:33:13.129Z,17.54
2022-10-25T11:35:48.361Z,17.38
2022-10-25T11:38:25.500Z,17.38
2022-10-25T11:41:23.044Z,17.26
2022-10-25T11:43:53.305Z,17.66
2022-10-25T11:46:29.981Z,17.79
2022-10-25T11:49:30.148Z,17.99
2022-10-25T11:52:02.789Z,17.73
2022-10-25T11:54:52.937Z,17.39
2022-10-25T11:57:45.378Z,17.44
2022-10-25T12:00:16.276Z,17.33
2022-10-25T12:03:06.168Z,17.39
2022-10-25T12:05:49.912Z,17.63
2022-10-25T12:08:31.106Z,17.84
2022-10-25T12:11:26.856Z,17.84
2022-10-25T12:13:56.745Z,17.61
2022-10-25T12:16:24.550Z,17.86
2022-10-25T12:19:00.111Z,18.29
2022-10-25T12:21:31.055Z,18.12
2022-10-25T12:23:58.396Z,18.14
2022-10-25T12:26:31.508Z,18.32
2022-10-25T12:29:01.536Z,18.56
2022-10-25T12:31:49.035Z,18.30
2022-10-25T12:34:34.273Z,17.85
2022-10-25T12:37:08.490Z,17.69
2022-10-25T12:39:43.909Z,17.90
2022-10-25T12:42:21.335Z,18.20
2022-10-25T12:45:33.019Z,18.24
2022-10-25T12:48:34.325Z,18.14
2022-10-25T12:51:22.783Z,18.12
2022-10-25T12:54:29.518Z,18.32
2022-10-25T12:57:27.722Z,18.72
2022-10-25T13:00:17.769Z,19.07
2022-10-25T13:03:19.501Z,18.94
2022-10-25T13:06:01.510Z,19.12
2022-10-25T13:08:29.690Z,18.70
2022-10-25T13:10:59.472Z,18.69
2022-10-25T13:13:29.787Z,18.93
2022-10-25T13:16:01.978Z,18.52
2022-10-25T13:18:34.244Z,19.58
2022-10-25T13:21:06.372Z,19.47
2022-10-25T13:23:56.201Z,18.92
2022-10-25T13:26:25.892Z,18.78
2022-10-25T13:28:58.571Z,18.74
2022-10-25T13:31:34.032Z,18.82
2022-10-25T13:34:12.635Z,18.88
2022-10-25T13:36:55.758Z,18.85
2022-10-25T13:39:44.690Z,18.96
2022-10-25T13:42:16.966Z,18.73
2022-10-25T13:45:07.025Z,18.06
2022-10-25T13:47:49.895Z,18.12
2022-10-25T13:50:27.739Z,18.97
2022-10-25T13:53:26.214Z,19.04
2022-10-25T13:56:13.376Z,18.48
2022-10-25T13:58:43.270Z,18.25
2022-10-25T14:01:15.683Z,18.76
2022-10-25T14:04:20.737Z,18.83
2022-10-25T14:06:47.381Z,18.53
2022-10-25T14:09:23.472Z,18.43
2022-10-25T14:12:11.948Z,18.43
2022-10-25T14:14:56.889Z,18.37
2022-10-25T14:17:34.168Z,18.61
2022-10-25T14:20:03.512Z,18.63
2022-10-25T14:22:37.425Z,19.00
2022-10-25T14:25:14.268Z,18.21
2022-10-25T14:27:40.906Z,18.35
2022-10-25T14:30:28.242Z,17.95
2022-10-25T14:33:00.559Z,18.03
2022-10-25T14:35:46.181Z,18.25
2022-10-25T14:38:19.422Z,18.27
2022-10-25T14:40:57.303Z,18.23
2022-10-25T14:43:28.444Z,18.45
2022-10-25T14:46:00.544Z,18.48
2022-10-25T14:48:27.919Z,18.60
2022-10-25T14:50:56.959Z,18.61
2022-10-25T14:53:23.853Z,18.49
2022-10-25T14:55:56.640Z,18.07
2022-10-25T14:58:24.235Z,17.86
2022-10-25T15:00:57.007Z,18.57
2022-10-25T15:03:25.147Z,18.53
2022-10-25T15:05:52.911Z,18.02
2022-10-25T15:08:25.776Z,17.58
2022-10-25T15:10:57.604Z,17.60
2022-10-25T15:13:42.350Z,17.79
2022-10-25T15:16:27.824Z,17.75
2022-10-25T15:19:09.289Z,17.87
2022-10-25T15:21:52.687Z,17.65
2022-10-25T15:24:27.077Z,17.47
2022-10-25T15:27:07.785Z,17.70
2022-10-25T15:29:45.958Z,17.46
2022-10-25T15:32:24.174Z,17.16
2022-10-25T15:34:53.814Z,16.92
2022-10-25T15:37:22.148Z,16.96
2022-10-25T15:39:51.120Z,16.86
2022-10-25T15:42:18.793Z,16.85
2022-10-25T15:44:45.810Z,16.81
2022-10-25T15:47:34.386Z,16.64
2022-10-25T15:50:03.351Z,16.55
2022-10-25T15:52:29.935Z,16.67
2022-10-25T15:54:56.521Z,16.59
2022-10-25T15:57:23.080Z,16.36
2022-10-25T15:59:49.656Z,16.22
2022-10-25T16:02:27.137Z,16.05
2022-10-25T16:04:53.958Z,15.88
2022-10-25T16:07:20.676Z,15.84
2022-10-25T16:09:47.334Z,15.80
2022-10-25T16:12:20.506Z,15.77
2022-10-25T16:14:48.633Z,15.62
2022-10-25T16:17:15.298Z,15.56
2022-10-25T16:19:41.986Z,15.24
2022-10-25T16:22:08.655Z,15.19
2022-10-25T16:24:35.317Z,15.16
2022-10-25T16:27:01.956Z,14.78
2022-10-25T16:29:29.638Z,14.79
2022-10-25T16:31:56.343Z,14.65
2022-10-25T16:34:22.935Z,14.79
2022-10-25T16:36:50.578Z,14.71
2022-10-25T16:39:17.434Z,14.70
2022-10-25T16:41:45.710Z,14.65
2022-10-25T16:44:15.212Z,14.59
2022-10-25T16:46:42.260Z,14.41
2022-10-25T16:49:09.547Z,14.31
2022-10-25T16:51:36.627Z,14.31
2022-10-25T16:54:04.282Z,14.18
2022-10-25T16:56:31.313Z,14.11
2022-10-25T16:58:57.935Z,14.25
2022-10-25T17:01:34.398Z,14.22
2022-10-25T17:04:02.898Z,14.17
2022-10-25T17:06:40.943Z,14.09
2022-10-25T17:09:08.556Z,13.94
2022-10-25T17:11:36.193Z,13.93
2022-10-25T17:14:03.225Z,13.88
2022-10-25T17:16:29.885Z,13.79
2022-10-25T17:18:56.527Z,13.70
2022-10-25T17:21:23.693Z,13.67
2022-10-25T17:23:50.313Z,13.48
2022-10-25T17:26:17.048Z,13.41
2022-10-25T17:28:44.500Z,13.46
2022-10-25T17:31:13.225Z,13.49
2022-10-25T17:33:40.736Z,13.51
2022-10-25T17:36:10.012Z,13.42
2022-10-25T17:38:36.674Z,13.35
2022-10-25T17:41:03.838Z,13.36
2022-10-25T17:43:30.534Z,13.33
2022-10-25T17:46:05.837Z,13.31
2022-10-25T17:48:32.707Z,13.24
2022-10-25T17:51:12.481Z,13.27
2022-10-25T17:53:39.330Z,13.10
2022-10-25T17:56:18.873Z,13.11
2022-10-25T17:58:47.902Z,12.96
2022-10-25T18:01:18.275Z,12.79
2022-10-25T18:03:45.039Z,12.67
2022-10-25T18:06:14.676Z,12.76
2022-10-25T18:08:41.509Z,12.69
2022-10-25T18:11:13.009Z,12.62
2022-10-25T18:13:41.661Z,12.52
2022-10-25T18:16:09.769Z,12.51
2022-10-25T18:18:36.898Z,12.43
2022-10-25T18:21:08.003Z,12.32
2022-10-25T18:23:35.170Z,12.19
2022-10-25T18:26:02.953Z,12.07
2022-10-25T18:28:29.635Z,11.94
2022-10-25T18:31:00.255Z,11.85
2022-10-25T18:33:29.775Z,11.71
2022-10-25T18:35:58.129Z,11.80
2022-10-25T18:38:25.084Z,11.83
2022-10-25T18:40:51.764Z,11.81
2022-10-25T18:43:18.294Z,11.93
2022-10-25T18:45:45.039Z,11.80
2022-10-25T18:48:12.124Z,11.71
2022-10-25T18:50:41.740Z,11.49
2022-10-25T18:53:09.240Z,11.30
2022-10-25T18:55:35.833Z,11.37
2022-10-25T18:58:02.523Z,11.25
2022-10-25T19:00:31.436Z,11.18
2022-10-25T19:02:58.157Z,11.07
2022-10-25T19:05:28.180Z,11.23
2022-10-25T19:07:56.000Z,11.32
2022-10-25T19:10:23.050Z,11.44
2022-10-25T19:12:51.285Z,11.34
2022-10-25T19:15:17.974Z,11.29
2022-10-25T19:17:44.576Z,11.34
2022-10-25T19:20:11.331Z,11.18
2022-10-25T19:22:38.056Z,11.21
2022-10-25T19:25:04.970Z,11.10
2022-10-25T19:27:31.539Z,11.14
2022-10-25T19:29:58.137Z,11.01
2022-10-25T19:32:24.808Z,10.98
2022-10-25T19:37:39.625Z,11.09
2022-10-25T19:40:08.267Z,11.17
2022-10-25T19:42:35.101Z,11.05
2022-10-25T19:45:02.344Z,11.06
2022-10-25T19:47:29.124Z,10.92
2022-10-25T19:49:55.738Z,10.94
2022-10-25T19:52:22.288Z,10.93
2022-10-25T19:54:49.040Z,10.86
2022-10-25T19:57:15.703Z,10.90
2022-10-25T19:59:42.217Z,10.84
2022-10-25T20:02:09.028Z,10.71
2022-10-25T20:04:36.067Z,10.66
2022-10-25T20:07:02.688Z,10.63
2022-10-25T20:09:29.219Z,10.60
2022-10-25T20:11:55.913Z,10.60
2022-10-25T20:14:22.460Z,10.62
2022-10-25T20:16:49.022Z,10.59
2022-10-25T20:19:15.693Z,10.59
2022-10-25T20:21:42.445Z,10.60
2022-10-25T20:24:10.133Z,10.59
2022-10-25T20:26:39.050Z,10.50
2022-10-25T20:29:08.608Z,10.52
2022-10-25T20:31:35.459Z,10.51
2022-10-25T20:34:02.682Z,10.47
2022-10-25T20:36:29.521Z,10.52
2022-10-25T20:38:56.176Z,10.50
2022-10-25T20:41:25.708Z,10.49
2022-10-25T20:43:54.791Z,10.48
2022-10-25T20:46:22.673Z,10.39
2022-10-25T20:48:49.372Z,10.37
2022-10-25T20:51:16.581Z,10.38
2022-10-25T20:53:45.616Z,10.38
2022-10-25T20:56:13.304Z,10.34
2022-10-25T20:58:40.036Z,10.34
2022-10-25T21:01:06.816Z,10.30
2022-10-25T21:03:33.883Z,10.31
2022-10-25T21:06:05.974Z,10.27
2022-10-25T21:08:33.669Z,10.16
2022-10-25T21:11:02.229Z,10.38
2022-10-25T21:13:34.016Z,10.33
2022-10-25T21:16:14.948Z,10.27
2022-10-25T21:18:42.951Z,10.29
2022-10-25T21:21:15.621Z,10.34
2022-10-25T21:23:42.193Z,10.27
2022-10-25T21:26:09.525Z,10.36
2022-10-25T21:28:38.645Z,10.34
2022-10-25T21:31:08.080Z,10.33
2022-10-25T21:33:34.678Z,10.51
2022-10-25T21:36:06.449Z,10.68
2022-10-25T21:38:33.123Z,10.62
2022-10-25T21:41:12.242Z,10.44
2022-10-25T21:43:43.361Z,10.45
2022-10-25T21:46:10.098Z,10.43
2022-10-25T21:48:36.854Z,10.49
2022-10-25T21:51:03.896Z,10.44
2022-10-25T21:53:30.986Z,10.38
2022-10-25T21:56:30.713Z,10.47
2022-10-25T21:58:59.238Z,10.47
2022-10-25T22:01:30.639Z,10.47
2022-10-25T22:03:57.424Z,10.46
2022-10-25T22:06:25.909Z,10.47
2022-10-25T22:08:55.110Z,10.59
2022-10-25T22:11:27.730Z,10.58
2022-10-25T22:14:01.879Z,10.52
2022-10-25T22:16:29.671Z,10.57
2022-10-25T22:18:58.990Z,10.61
2022-10-25T22:21:30.539Z,10.59
2022-10-25T22:23:57.217Z,10.53
2022-10-25T22:26:24.303Z,10.54
2022-10-25T22:28:55.863Z,10.59
2022-10-25T22:31:23.339Z,10.59
2022-10-25T22:34:08.967Z,10.55
2022-10-25T22:36:38.561Z,10.54
2022-10-25T22:39:06.842Z,10.56
2022-10-25T22:41:33.886Z,10.50
2022-10-25T22:44:00.900Z,10.49
2022-10-25T22:46:36.914Z,10.47
2022-10-25T22:49:08.492Z,10.53
2022-10-25T22:51:35.708Z,10.47
2022-10-25T22:54:02.418Z,10.47
2022-10-25T22:56:33.372Z,10.55
2022-10-25T22:59:02.433Z,10.55
2022-10-25T23:01:31.666Z,10.54
2022-10-25T23:03:59.408Z,10.51
2022-10-25T23:06:31.106Z,10.59
2022-10-25T23:09:04.089Z,10.58
2022-10-25T23:11:33.508Z,10.64
2022-10-25T23:14:01.287Z,10.58
2022-10-25T23:16:29.272Z,10.55
2022-10-25T23:18:56.881Z,10.57
2022-10-25T23:21:25.539Z,10.58
2022-10-25T23:23:53.464Z,10.61
2022-10-25T23:26:34.570Z,10.61
2022-10-25T23:29:01.432Z,10.67
2022-10-25T23:31:29.157Z,10.69
2022-10-25T23:33:57.977Z,10.71
2022-10-25T23:36:27.311Z,10.73
2022-10-25T23:38:55.598Z,10.71
2022-10-25T23:41:22.694Z,10.74
2022-10-25T23:43:50.018Z,10.74
2022-10-25T23:46:16.564Z,10.74
2022-10-25T23:48:43.156Z,10.78
2022-10-25T23:51:12.935Z,10.75
2022-10-25T23:53:39.853Z,10.75
2022-10-25T23:56:08.406Z,10.75
2022-10-25T23:58:35.471Z,10.75
